Time;durP1;ratioP1;P1;durP2;ratioP2;P2;SDS_P1;SDS_P2;PMS_P1;PMS_P2;Temp;Humidity;BMP_temperature;BMP_pressure;BME280_temperature;BME280_humidity;BME280_pressure;Samples;Min_cycle;Max_cycle;Signal;HPM_P1;HPM_P2
2023/11/16 00:00:15;;;;;;;5.45;1.70;;;;;;;11.99;98.80;100189.59;5005485;28;20065;-69
2023/11/16 00:02:43;;;;;;;3.05;1.50;;;;;;;11.98;99.62;100180.72;4995933;28;20003;-72
2023/11/16 00:05:16;;;;;;;2.42;1.35;;;;;;;12.03;99.71;100191.19;4995527;28;20031;-72
2023/11/16 00:07:48;;;;;;;3.33;1.25;;;;;;;12.01;99.88;100190.00;4973159;28;20041;-72
2023/11/16 00:10:16;;;;;;;4.30;1.48;;;;;;;11.97;100.00;100192.66;4973018;28;20149;-72
2023/11/16 00:12:42;;;;;;;4.55;1.70;;;;;;;11.97;100.00;100175.69;4978069;28;20018;-72
2023/11/16 00:15:08;;;;;;;3.22;1.60;;;;;;;11.94;100.00;100182.63;4985639;28;20045;-71
2023/11/16 00:17:37;;;;;;;1.80;1.50;;;;;;;11.93;100.00;100186.47;4973934;28;20034;-72
2023/11/16 00:20:07;;;;;;;5.20;1.55;;;;;;;11.99;100.00;100179.56;4982759;28;20039;-72
2023/11/16 00:22:33;;;;;;;2.10;1.42;;;;;;;11.97;99.95;100179.19;4974160;28;20789;-72
2023/11/16 00:24:59;;;;;;;2.22;1.38;;;;;;;11.95;100.00;100170.69;4972466;28;20033;-72
2023/11/16 00:27:26;;;;;;;1.85;1.38;;;;;;;11.97;100.00;100175.69;4976906;28;20616;-73
2023/11/16 00:29:54;;;;;;;2.75;1.45;;;;;;;12.01;100.00;100177.28;4980398;28;20031;-72
2023/11/16 00:32:19;;;;;;;1.67;1.42;;;;;;;12.01;100.00;100165.69;4976700;28;20517;-72
2023/11/16 00:34:45;;;;;;;2.72;1.52;;;;;;;12.01;99.72;100173.81;4988605;28;20057;-72
2023/11/16 00:37:11;;;;;;;6.13;1.40;;;;;;;11.98;100.00;100158.38;4989781;28;20077;-72
2023/11/16 00:39:41;;;;;;;3.03;1.38;;;;;;;12.00;100.00;100169.56;4975532;28;20118;-72
2023/11/16 00:42:07;;;;;;;1.30;0.98;;;;;;;11.95;100.00;100170.69;4990245;28;20117;-72
2023/11/16 00:44:32;;;;;;;2.13;0.80;;;;;;;12.02;100.00;100157.22;4976652;28;21298;-72
2023/11/16 00:46:57;;;;;;;2.67;1.58;;;;;;;12.03;99.64;100150.69;4979275;28;20065;-72
2023/11/16 00:49:23;;;;;;;3.25;1.17;;;;;;;11.96;100.00;100145.25;4992907;28;20117;-72
2023/11/16 00:51:50;;;;;;;2.85;1.27;;;;;;;11.96;99.88;100139.88;4975395;28;20046;-72
2023/11/16 00:54:16;;;;;;;5.70;1.55;;;;;;;11.91;100.00;100140.19;4978692;28;20023;-72
2023/11/16 00:56:41;;;;;;;0.80;0.80;;;;;;;11.91;100.00;100137.50;4990533;28;20039;-72
2023/11/16 00:59:10;;;;;;;1.70;1.10;;;;;;;11.93;100.00;100132.50;4981832;28;20496;-72
2023/11/16 01:01:37;;;;;;;3.00;1.63;;;;;;;11.98;100.00;100142.19;4973849;28;20043;-72
2023/11/16 01:04:06;;;;;;;1.85;1.25;;;;;;;11.96;100.00;100137.16;4987139;28;20037;-72
2023/11/16 01:06:32;;;;;;;2.63;1.17;;;;;;;11.99;100.00;100139.09;4978722;28;20034;-72
2023/11/16 01:08:59;;;;;;;1.42;1.25;;;;;;;11.95;99.98;100132.91;4977952;28;20046;-72
2023/11/16 01:11:28;;;;;;;4.78;1.98;;;;;;;11.86;100.00;100127.06;4972173;28;20090;-72
2023/11/16 01:13:57;;;;;;;3.70;1.35;;;;;;;11.92;100.00;100124.78;4965590;28;20026;-72
2023/11/16 01:16:30;;;;;;;2.45;1.40;;;;;;;11.93;100.00;100132.50;4964348;28;20391;-71
2023/11/16 01:19:00;;;;;;;2.08;1.40;;;;;;;11.85;100.00;100125.50;4964798;28;20133;-70
2023/11/16 01:21:26;;;;;;;3.67;1.17;;;;;;;11.77;100.00;100122.00;4972186;28;20031;-72
2023/11/16 01:23:59;;;;;;;4.57;1.35;;;;;;;11.87;100.00;100117.81;4973018;28;20455;-72
2023/11/16 01:26:28;;;;;;;3.60;2.17;;;;;;;11.95;99.80;100116.72;4978695;28;20073;-72
2023/11/16 01:29:01;;;;;;;2.15;1.23;;;;;;;11.95;99.83;100111.31;4990151;28;20094;-72
2023/11/16 01:31:27;;;;;;;2.08;1.08;;;;;;;11.97;99.64;100110.94;4972956;28;20065;-72
2023/11/16 01:33:53;;;;;;;2.08;1.38;;;;;;;11.95;99.65;100102.44;4973905;28;20041;-72
2023/11/16 01:36:19;;;;;;;1.35;1.08;;;;;;;11.84;100.00;100102.41;4971654;28;20129;-72
2023/11/16 01:38:45;;;;;;;4.00;1.30;;;;;;;11.93;99.59;100105.53;4974453;28;20038;-71
2023/11/16 01:41:12;;;;;;;2.00;1.60;;;;;;;11.87;100.00;100103.53;4973752;28;20038;-71
2023/11/16 01:43:38;;;;;;;2.45;1.42;;;;;;;11.94;99.74;100096.28;4982586;28;20077;-72
2023/11/16 01:46:09;;;;;;;7.28;1.30;;;;;;;11.90;99.63;100100.09;4970534;28;20067;-72
2023/11/16 01:48:39;;;;;;;2.70;1.65;;;;;;;11.84;100.00;100082.72;4986654;28;20448;-72
2023/11/16 01:51:08;;;;;;;4.30;1.47;;;;;;;11.78;100.00;100098.50;4972047;28;20027;-71
2023/11/16 01:53:39;;;;;;;3.88;1.80;;;;;;;11.94;99.87;100098.22;4987880;28;20038;-73
2023/11/16 01:56:07;;;;;;;1.60;1.48;;;;;;;11.77;99.45;100103.13;4974936;28;20153;-71
2023/11/16 01:58:33;;;;;;;3.20;1.38;;;;;;;11.85;99.83;100084.25;4970187;28;20125;-72
2023/11/16 02:01:04;;;;;;;3.40;1.63;;;;;;;11.75;100.00;100091.91;4972129;28;20043;-72
2023/11/16 02:03:31;;;;;;;1.20;0.93;;;;;;;11.87;99.55;100085.44;4972547;28;20461;-72
2023/11/16 02:05:56;;;;;;;1.58;1.48;;;;;;;11.83;99.49;100081.94;4974872;28;20031;-71
2023/11/16 02:08:23;;;;;;;3.65;1.10;;;;;;;11.67;98.70;100076.84;4979228;28;20034;-71
2023/11/16 02:10:48;;;;;;;1.33;1.05;;;;;;;11.72;100.00;100089.22;4988845;28;20568;-72
2023/11/16 02:13:20;;;;;;;1.08;0.93;;;;;;;11.78;99.93;100075.00;4990250;28;20027;-71
2023/11/16 02:15:57;;;;;;;2.78;1.25;;;;;;;11.93;99.09;100072.38;4968727;28;20409;-72
2023/11/16 02:18:25;;;;;;;1.38;1.27;;;;;;;11.78;98.46;100071.53;4979155;28;20085;-72
2023/11/16 02:20:55;;;;;;;3.72;1.60;;;;;;;11.65;98.78;100078.34;4971548;28;20520;-72
2023/11/16 02:23:21;;;;;;;1.30;1.20;;;;;;;11.67;99.20;100071.44;4983015;28;20034;-72
2023/11/16 02:25:49;;;;;;;2.85;1.00;;;;;;;11.78;98.42;100076.91;4981425;28;20035;-70
2023/11/16 02:28:15;;;;;;;1.30;0.90;;;;;;;11.65;98.13;100062.19;4987135;28;20045;-73
2023/11/16 02:30:40;;;;;;;3.20;1.17;;;;;;;11.61;98.89;100081.00;4974794;28;20031;-72
2023/11/16 02:33:06;;;;;;;1.38;1.15;;;;;;;11.68;98.82;100078.41;4991649;28;20379;-72
2023/11/16 02:35:33;;;;;;;2.60;1.98;;;;;;;11.42;100.00;100067.03;4974103;28;20520;-72
2023/11/16 02:37:59;;;;;;;3.67;0.90;;;;;;;11.39;100.00;100063.16;4972447;28;20035;-72
2023/11/16 02:40:25;;;;;;;2.00;1.13;;;;;;;11.59;99.83;100077.16;4972637;28;20054;-72
2023/11/16 02:42:52;;;;;;;3.35;1.20;;;;;;;11.53;100.00;100065.94;4972392;28;20014;-71
2023/11/16 02:45:23;;;;;;;2.58;1.20;;;;;;;11.51;99.97;100062.06;4971159;28;20039;-72
2023/11/16 02:47:55;;;;;;;1.35;0.98;;;;;;;11.61;99.25;100058.69;4975596;28;20401;-72
2023/11/16 02:50:22;;;;;;;2.35;0.90;;;;;;;11.62;99.05;100055.59;4985989;28;20035;-71
2023/11/16 02:52:52;;;;;;;1.25;1.05;;;;;;;11.29;100.00;100049.56;4978585;28;20030;-72
2023/11/16 02:55:20;;;;;;;1.25;1.08;;;;;;;11.62;99.69;100057.50;4975298;28;20081;-72
2023/11/16 02:57:46;;;;;;;1.17;0.73;;;;;;;11.68;99.28;100064.13;4971404;28;20030;-71
2023/11/16 03:00:12;;;;;;;1.38;1.20;;;;;;;11.60;98.97;100057.13;4972575;28;20031;-71
2023/11/16 03:02:44;;;;;;;0.93;0.93;;;;;;;11.68;98.67;100062.22;4977972;28;20029;-72
2023/11/16 03:05:14;;;;;;;1.85;0.98;;;;;;;11.53;99.46;100054.38;4977341;28;20045;-72
2023/11/16 03:07:41;;;;;;;3.50;1.38;;;;;;;11.59;99.20;100061.72;4990254;28;20038;-71
2023/11/16 03:10:09;;;;;;;4.68;1.10;;;;;;;11.69;98.71;100063.75;4977874;28;20394;-70
2023/11/16 03:12:36;;;;;;;0.82;0.70;;;;;;;11.62;99.25;100063.69;4997452;28;20054;-72
2023/11/16 03:15:05;;;;;;;0.93;0.60;;;;;;;11.64;98.78;100071.41;4993353;28;20063;-72
2023/11/16 03:17:32;;;;;;;1.63;0.80;;;;;;;11.35;100.00;100069.66;4990072;28;20027;-70
2023/11/16 03:19:58;;;;;;;1.08;0.77;;;;;;;11.28;100.00;100065.00;5007138;28;20023;-71
2023/11/16 03:22:25;;;;;;;1.50;0.70;;;;;;;11.46;99.90;100065.09;5011581;28;20014;-72
2023/11/16 03:24:52;;;;;;;0.50;0.45;;;;;;;11.33;100.00;100077.34;4977227;28;20041;-73
2023/11/16 03:27:19;;;;;;;0.50;0.50;;;;;;;11.24;100.00;100074.97;4975114;28;20402;-72
2023/11/16 03:29:44;;;;;;;0.55;0.45;;;;;;;11.23;100.00;100078.03;4976233;28;20054;-72
2023/11/16 03:32:10;;;;;;;0.65;0.40;;;;;;;11.39;99.92;100065.06;4973751;28;20486;-72
2023/11/16 03:34:36;;;;;;;0.35;0.35;;;;;;;11.39;100.00;100075.84;4989361;28;20039;-72
2023/11/16 03:37:03;;;;;;;5.15;0.32;;;;;;;11.17;100.00;100074.16;4966776;28;20413;-72
2023/11/16 03:39:30;;;;;;;1.42;0.50;;;;;;;11.04;100.00;100075.56;4969463;28;20074;-72
2023/11/16 03:41:57;;;;;;;3.85;0.57;;;;;;;11.39;100.00;100065.06;4963053;28;20023;-71
2023/11/16 03:44:26;;;;;;;0.60;0.60;;;;;;;11.20;100.00;100074.16;4969378;28;20031;-71
2023/11/16 03:46:53;;;;;;;0.40;0.40;;;;;;;11.39;100.00;100078.53;4981217;28;20030;-72
2023/11/16 03:49:20;;;;;;;0.85;0.40;;;;;;;11.34;100.00;100085.03;4975473;28;20092;-72
2023/11/16 03:51:45;;;;;;;0.50;0.50;;;;;;;11.23;100.00;100088.81;4964240;28;20460;-71
2023/11/16 03:54:11;;;;;;;0.38;0.32;;;;;;;11.19;100.00;100090.72;4980177;28;20039;-71
2023/11/16 03:56:37;;;;;;;2.35;0.45;;;;;;;11.02;100.00;100099.41;4971798;28;20027;-72
2023/11/16 03:59:02;;;;;;;0.80;0.60;;;;;;;10.80;100.00;100091.13;4986462;28;20058;-72
2023/11/16 04:01:36;;;;;;;0.65;0.43;;;;;;;10.86;100.00;100092.31;4969582;28;20031;-72
2023/11/16 04:04:01;;;;;;;0.65;0.52;;;;;;;10.80;100.00;100104.56;4962745;28;20039;-72
2023/11/16 04:06:29;;;;;;;1.15;0.75;;;;;;;10.78;100.00;100112.25;4968718;28;20038;-70
2023/11/16 04:08:56;;;;;;;0.45;0.45;;;;;;;10.55;100.00;100110.84;4969156;28;20402;-70
2023/11/16 04:11:22;;;;;;;0.30;0.30;;;;;;;10.57;100.00;100127.38;4961865;28;20502;-71
2023/11/16 04:13:48;;;;;;;0.45;0.45;;;;;;;10.52;100.00;100123.13;4953690;28;20166;-71
2023/11/16 04:16:21;;;;;;;0.30;0.30;;;;;;;9.99;100.00;100127.78;4968039;28;20031;-70
2023/11/16 04:18:53;;;;;;;0.35;0.35;;;;;;;10.16;97.90;100136.50;4966335;28;20543;-71
2023/11/16 04:21:24;;;;;;;0.20;0.20;;;;;;;10.15;97.97;100133.03;4981751;28;20039;-72
2023/11/16 04:23:52;;;;;;;0.30;0.30;;;;;;;10.19;97.44;100135.75;4961132;28;20027;-72
2023/11/16 04:26:27;;;;;;;1.02;0.35;;;;;;;10.10;96.41;100143.34;4965185;28;20064;-72
2023/11/16 04:28:52;;;;;;;0.40;0.40;;;;;;;10.02;97.03;100137.06;4969012;28;20039;-71
2023/11/16 04:31:21;;;;;;;1.60;0.38;;;;;;;10.06;97.31;100140.56;4967847;28;20065;-71
2023/11/16 04:33:51;;;;;;;0.22;0.22;;;;;;;9.84;97.33;100144.88;4969818;28;20054;-71
2023/11/16 04:36:23;;;;;;;1.05;0.40;;;;;;;9.82;96.52;100135.59;4980812;28;20043;-70
2023/11/16 04:38:50;;;;;;;0.22;0.22;;;;;;;9.62;96.86;100152.97;4975337;28;20462;-71
2023/11/16 04:41:16;;;;;;;0.43;0.43;;;;;;;9.51;97.22;100158.16;4970356;28;20078;-70
2023/11/16 04:43:43;;;;;;;3.38;0.50;;;;;;;9.44;98.24;100166.13;4959094;28;20429;-71
2023/11/16 04:46:11;;;;;;;0.20;0.20;;;;;;;9.34;96.58;100166.72;4955380;28;20714;-71
2023/11/16 04:48:41;;;;;;;0.30;0.30;;;;;;;9.73;95.25;100164.66;4965469;28;20031;-71
2023/11/16 04:51:07;;;;;;;3.72;0.40;;;;;;;9.70;94.25;100170.75;4971416;28;20034;-72
2023/11/16 04:53:34;;;;;;;0.38;0.30;;;;;;;9.53;93.25;100165.88;4968191;28;20054;-71
2023/11/16 04:56:00;;;;;;;1.25;0.35;;;;;;;9.47;94.78;100175.38;4971501;28;20449;-71
2023/11/16 04:58:25;;;;;;;0.22;0.22;;;;;;;9.47;94.19;100178.84;4971315;28;20038;-71
2023/11/16 05:00:51;;;;;;;0.40;0.40;;;;;;;9.50;93.48;100174.66;4962075;28;20039;-72
2023/11/16 05:03:16;;;;;;;0.55;0.50;;;;;;;9.68;93.34;100178.41;4963553;28;20039;-72
2023/11/16 05:05:45;;;;;;;0.30;0.30;;;;;;;9.34;94.06;100180.16;4975446;28;20033;-72
2023/11/16 05:08:11;;;;;;;0.50;0.30;;;;;;;9.70;92.27;100189.56;4967324;28;20035;-71
2023/11/16 05:10:36;;;;;;;0.30;0.30;;;;;;;9.39;92.72;100195.97;4979880;28;20049;-72
2023/11/16 05:13:03;;;;;;;0.40;0.40;;;;;;;9.28;94.33;100186.94;4962024;28;20490;-71
2023/11/16 05:15:29;;;;;;;1.02;0.57;;;;;;;9.14;92.96;100185.94;4971551;28;20030;-71
2023/11/16 05:17:54;;;;;;;2.25;0.65;;;;;;;9.36;92.13;100187.84;4967250;28;20557;-71
2023/11/16 05:20:20;;;;;;;0.47;0.32;;;;;;;9.47;91.78;100184.22;4968474;28;20062;-71
2023/11/16 05:22:46;;;;;;;0.82;0.50;;;;;;;9.60;90.47;100190.19;4965137;28;20090;-70
2023/11/16 05:25:11;;;;;;;1.38;0.60;;;;;;;9.40;92.49;100200.22;4967338;28;20031;-71
2023/11/16 05:27:37;;;;;;;0.70;0.50;;;;;;;8.98;92.97;100205.59;4980687;28;20023;-71
2023/11/16 05:30:04;;;;;;;0.73;0.63;;;;;;;8.96;93.11;100215.16;4972585;28;20034;-71
2023/11/16 05:32:29;;;;;;;2.72;0.30;;;;;;;8.92;93.67;100203.56;4969717;28;20074;-71
2023/11/16 05:34:57;;;;;;;0.47;0.47;;;;;;;9.31;91.55;100212.34;4962314;28;20034;-71
2023/11/16 05:37:23;;;;;;;0.65;0.30;;;;;;;9.12;92.48;100210.44;4970302;28;20045;-71
2023/11/16 05:39:49;;;;;;;0.50;0.50;;;;;;;8.96;92.09;100215.91;4971145;28;20035;-71
2023/11/16 05:42:14;;;;;;;0.45;0.45;;;;;;;9.21;90.76;100207.53;4972379;28;20022;-70
2023/11/16 05:44:40;;;;;;;0.50;0.32;;;;;;;9.16;90.84;100223.94;4973125;28;20078;-71
2023/11/16 05:47:06;;;;;;;0.38;0.38;;;;;;;8.98;91.91;100221.69;4972784;28;20034;-71
2023/11/16 05:49:32;;;;;;;0.57;0.57;;;;;;;9.10;91.17;100234.19;4970864;28;20490;-71
2023/11/16 05:51:58;;;;;;;1.17;0.75;;;;;;;9.26;89.79;100236.78;4972490;28;20073;-71
2023/11/16 05:54:23;;;;;;;0.80;0.80;;;;;;;9.26;88.59;100244.84;4966486;28;20080;-71
2023/11/16 05:56:50;;;;;;;0.60;0.60;;;;;;;9.26;90.06;100250.22;4983393;28;20055;-72
2023/11/16 05:59:16;;;;;;;0.75;0.75;;;;;;;8.89;91.47;100248.00;4966661;28;20524;-70
2023/11/16 06:01:45;;;;;;;0.73;0.73;;;;;;;9.12;90.79;100253.41;4967092;28;20260;-71
2023/11/16 06:04:11;;;;;;;0.40;0.40;;;;;;;9.19;90.52;100260.84;4969379;28;20935;-71
2023/11/16 06:06:37;;;;;;;1.98;0.80;;;;;;;8.70;90.90;100269.47;4966250;28;20034;-71
2023/11/16 06:09:03;;;;;;;1.10;0.50;;;;;;;8.77;90.37;100264.22;4966038;28;20078;-71
2023/11/16 06:11:32;;;;;;;1.08;0.55;;;;;;;8.96;89.34;100261.56;4982493;28;20474;-71
2023/11/16 06:13:59;;;;;;;0.60;0.60;;;;;;;8.95;89.73;100278.03;4967965;28;20038;-71
2023/11/16 06:16:25;;;;;;;0.60;0.60;;;;;;;9.15;88.27;100270.75;4971075;28;20482;-71
2023/11/16 06:18:57;;;;;;;0.98;0.73;;;;;;;8.97;88.67;100265.03;4972170;28;20054;-71
2023/11/16 06:21:23;;;;;;;0.40;0.40;;;;;;;8.87;88.78;100279.78;4959650;28;20051;-71
2023/11/16 06:23:48;;;;;;;1.00;0.65;;;;;;;9.02;88.39;100272.78;4971072;28;20043;-72
2023/11/16 06:26:14;;;;;;;0.73;0.55;;;;;;;8.97;88.54;100273.06;4980597;28;20489;-70
2023/11/16 06:28:39;;;;;;;0.77;0.77;;;;;;;9.06;88.35;100289.75;4983286;28;20102;-71
2023/11/16 06:31:05;;;;;;;1.05;0.60;;;;;;;9.02;88.31;100292.38;4989444;28;20051;-71
2023/11/16 06:33:31;;;;;;;3.33;0.80;;;;;;;8.91;88.98;100288.69;4985416;28;20037;-73
2023/11/16 06:35:57;;;;;;;0.73;0.73;;;;;;;9.02;88.63;100297.75;4986866;28;20022;-71
2023/11/16 06:38:22;;;;;;;0.73;0.57;;;;;;;8.89;89.27;100307.06;4984368;28;20034;-70
2023/11/16 06:40:48;;;;;;;0.60;0.52;;;;;;;9.11;87.76;100313.66;4980926;28;20026;-71
2023/11/16 06:43:15;;;;;;;0.45;0.45;;;;;;;8.93;89.04;100315.19;4959068;28;20031;-71
2023/11/16 06:45:41;;;;;;;0.82;0.75;;;;;;;9.04;89.53;100325.03;4973601;28;20122;-72
2023/11/16 06:48:10;;;;;;;0.82;0.70;;;;;;;9.08;89.27;100320.50;4971202;28;20527;-72
2023/11/16 06:50:40;;;;;;;1.23;0.85;;;;;;;8.96;89.74;100325.25;4976207;28;20128;-72
2023/11/16 06:53:05;;;;;;;0.43;0.43;;;;;;;8.79;89.14;100329.09;4976315;28;20030;-73
2023/11/16 06:55:34;;;;;;;0.90;0.68;;;;;;;8.75;86.85;100335.53;4959330;28;20030;-72
2023/11/16 06:58:01;;;;;;;0.70;0.70;;;;;;;8.65;86.77;100334.13;4979317;28;20503;-72
2023/11/16 07:00:27;;;;;;;0.85;0.65;;;;;;;8.83;86.30;100338.00;4974846;28;20640;-73
2023/11/16 07:02:54;;;;;;;0.70;0.65;;;;;;;8.61;86.96;100352.09;4975265;28;20036;-72
2023/11/16 07:05:20;;;;;;;0.60;0.60;;;;;;;8.84;86.21;100349.53;4988864;28;20110;-72
2023/11/16 07:07:46;;;;;;;0.55;0.50;;;;;;;8.67;85.94;100356.03;4988588;28;20474;-72
2023/11/16 07:10:12;;;;;;;0.98;0.77;;;;;;;8.62;86.46;100353.63;4971175;28;20038;-72
2023/11/16 07:12:42;;;;;;;0.68;0.50;;;;;;;8.77;86.04;100352.03;4969961;28;20041;-70
2023/11/16 07:15:10;;;;;;;1.20;0.68;;;;;;;8.83;84.16;100359.47;4976723;28;20046;-72
2023/11/16 07:17:38;;;;;;;1.27;0.85;;;;;;;8.73;85.91;100354.63;4974538;28;20609;-73
2023/11/16 07:20:14;;;;;;;0.73;0.73;;;;;;;8.93;84.73;100358.94;4971211;28;20066;-73
2023/11/16 07:22:43;;;;;;;0.57;0.50;;;;;;;9.10;84.68;100358.53;4954586;28;20034;-72
2023/11/16 07:25:13;;;;;;;0.65;0.60;;;;;;;8.91;84.45;100368.47;4974006;28;20457;-73
2023/11/16 07:27:38;;;;;;;0.90;0.65;;;;;;;8.46;85.60;100377.00;4976857;28;20117;-72
2023/11/16 07:30:04;;;;;;;1.30;0.77;;;;;;;8.61;85.94;100384.28;4985223;28;20500;-72
2023/11/16 07:32:30;;;;;;;0.47;0.47;;;;;;;8.48;86.31;100380.13;4976657;28;20069;-73
2023/11/16 07:34:59;;;;;;;0.82;0.50;;;;;;;8.56;86.01;100381.06;4986369;28;20042;-72
2023/11/16 07:37:25;;;;;;;0.50;0.50;;;;;;;8.66;85.06;100392.06;4973929;28;20047;-72
2023/11/16 07:39:54;;;;;;;1.25;0.90;;;;;;;8.76;84.79;100396.91;4962877;28;20027;-73
2023/11/16 07:42:21;;;;;;;1.00;0.80;;;;;;;8.80;83.93;100397.78;4969656;28;20027;-72
2023/11/16 07:44:47;;;;;;;0.70;0.70;;;;;;;8.84;83.25;100401.31;4979012;28;20081;-72
2023/11/16 07:47:13;;;;;;;0.55;0.52;;;;;;;9.01;83.87;100400.16;4971598;28;20084;-72
2023/11/16 07:49:39;;;;;;;0.40;0.40;;;;;;;8.65;84.41;100403.16;4971868;28;20015;-72
2023/11/16 07:52:06;;;;;;;0.40;0.40;;;;;;;8.75;84.96;100406.06;4983228;28;20401;-72
2023/11/16 07:54:32;;;;;;;2.13;0.40;;;;;;;9.00;83.17;100412.78;4983707;28;20104;-72
2023/11/16 07:57:02;;;;;;;0.52;0.52;;;;;;;8.79;82.61;100411.53;4962755;28;20118;-72
2023/11/16 07:59:32;;;;;;;0.30;0.30;;;;;;;8.78;83.93;100404.59;4969203;28;20085;-71
2023/11/16 08:02:00;;;;;;;0.43;0.43;;;;;;;8.48;85.46;100406.94;4968956;28;20038;-71
2023/11/16 08:04:34;;;;;;;0.65;0.60;;;;;;;8.69;85.50;100404.78;4953930;28;20122;-71
2023/11/16 08:07:00;;;;;;;0.50;0.50;;;;;;;8.74;84.75;100411.78;4969422;28;20036;-71
2023/11/16 08:09:29;;;;;;;0.50;0.50;;;;;;;8.88;83.75;100407.53;4972169;28;20034;-72
2023/11/16 08:11:54;;;;;;;0.45;0.40;;;;;;;8.97;83.50;100413.50;4968080;28;20026;-71
2023/11/16 08:14:24;;;;;;;0.38;0.38;;;;;;;9.05;84.10;100417.91;4967173;28;20046;-72
2023/11/16 08:16:51;;;;;;;0.60;0.60;;;;;;;8.88;85.07;100420.94;4974973;28;20765;-71
2023/11/16 08:19:19;;;;;;;0.85;0.65;;;;;;;8.86;85.73;100425.13;4973368;28;20049;-71
2023/11/16 08:21:45;;;;;;;1.67;0.57;;;;;;;8.99;84.89;100430.03;4969295;28;20532;-71
2023/11/16 08:24:14;;;;;;;0.45;0.45;;;;;;;8.92;84.80;100432.53;4967938;28;20039;-70
2023/11/16 08:26:39;;;;;;;0.45;0.45;;;;;;;9.00;84.72;100436.97;4979834;28;20050;-72
2023/11/16 08:29:04;;;;;;;1.38;0.63;;;;;;;9.03;84.64;100428.22;4949166;28;20019;-71
2023/11/16 08:31:30;;;;;;;0.80;0.80;;;;;;;9.07;84.30;100418.34;4986535;28;20161;-71
2023/11/16 08:33:56;;;;;;;0.82;0.70;;;;;;;9.02;85.34;100433.91;4972528;28;20094;-72
2023/11/16 08:36:22;;;;;;;0.88;0.68;;;;;;;8.91;84.64;100425.63;4988482;28;20034;-71
2023/11/16 08:38:47;;;;;;;0.47;0.47;;;;;;;9.00;84.10;100434.28;4972973;28;20035;-71
2023/11/16 08:41:17;;;;;;;1.13;0.75;;;;;;;9.17;84.35;100427.75;4973329;28;20038;-72
2023/11/16 08:43:50;;;;;;;1.20;0.80;;;;;;;9.15;84.05;100421.97;4966427;28;20405;-70
2023/11/16 08:46:24;;;;;;;0.98;0.55;;;;;;;9.00;82.55;100436.19;4971491;28;20039;-71
2023/11/16 08:48:55;;;;;;;0.30;0.30;;;;;;;9.01;84.11;100432.38;4971505;28;20073;-71
2023/11/16 08:51:22;;;;;;;0.50;0.50;;;;;;;9.08;84.28;100444.06;4984154;28;20071;-71
2023/11/16 08:53:50;;;;;;;0.70;0.55;;;;;;;9.13;84.54;100431.50;4978028;28;20027;-71
2023/11/16 08:56:15;;;;;;;0.73;0.55;;;;;;;9.30;83.38;100445.31;4975525;28;20101;-70
2023/11/16 08:58:47;;;;;;;0.63;0.63;;;;;;;9.37;83.08;100445.44;4969080;28;20496;-71
2023/11/16 09:01:17;;;;;;;0.65;0.60;;;;;;;9.43;81.78;100435.19;4967651;28;20031;-71
2023/11/16 09:03:49;;;;;;;0.40;0.40;;;;;;;9.22;82.59;100437.44;4974328;28;20022;-71
2023/11/16 09:06:21;;;;;;;1.58;1.00;;;;;;;9.14;83.21;100439.19;4972004;28;20042;-71
2023/11/16 09:08:50;;;;;;;1.23;0.95;;;;;;;9.35;82.55;100444.28;4971145;28;20035;-72
2023/11/16 09:11:17;;;;;;;1.00;0.68;;;;;;;9.46;82.44;100445.28;4972075;28;20022;-72
2023/11/16 09:13:46;;;;;;;0.63;0.63;;;;;;;9.36;81.90;100443.91;4970923;28;20501;-71
2023/11/16 09:16:11;;;;;;;0.60;0.60;;;;;;;9.43;82.18;100437.88;4981187;28;20058;-70
2023/11/16 09:18:41;;;;;;;0.52;0.52;;;;;;;9.37;82.14;100432.03;4973467;28;20026;-72
2023/11/16 09:21:12;;;;;;;0.90;0.70;;;;;;;9.06;82.69;100438.25;4970847;28;20035;-71
2023/11/16 09:23:38;;;;;;;0.70;0.70;;;;;;;9.21;82.71;100439.38;4967685;28;20034;-72
2023/11/16 09:26:04;;;;;;;0.60;0.60;;;;;;;9.20;83.85;100447.75;4967785;28;20406;-72
2023/11/16 09:28:31;;;;;;;0.52;0.52;;;;;;;9.00;83.55;100438.88;4965664;28;20046;-71
2023/11/16 09:31:01;;;;;;;0.40;0.40;;;;;;;9.07;82.93;100445.19;4986371;28;20031;-71
2023/11/16 09:33:27;;;;;;;0.63;0.63;;;;;;;9.23;83.22;100455.13;4973730;28;20029;-71
2023/11/16 09:35:54;;;;;;;0.75;0.68;;;;;;;9.49;81.73;100445.34;4977582;28;20126;-71
2023/11/16 09:38:20;;;;;;;1.10;0.68;;;;;;;9.63;81.54;100440.25;4978535;28;20022;-70
2023/11/16 09:40:47;;;;;;;0.50;0.50;;;;;;;9.56;81.68;100437.41;4974870;28;20107;-71
2023/11/16 09:43:20;;;;;;;0.50;0.50;;;;;;;9.71;81.42;100435.81;4975200;28;20077;-70
2023/11/16 09:45:54;;;;;;;0.95;0.60;;;;;;;9.58;81.28;100432.47;4976361;28;20042;-72
2023/11/16 09:48:20;;;;;;;0.60;0.60;;;;;;;9.41;81.69;100440.16;4972585;28;20038;-71
2023/11/16 09:50:48;;;;;;;0.50;0.50;;;;;;;9.15;80.90;100442.66;4984570;28;20019;-70
2023/11/16 09:53:18;;;;;;;0.80;0.75;;;;;;;9.09;80.81;100452.91;4977543;28;20102;-70
2023/11/16 09:55:49;;;;;;;0.47;0.47;;;;;;;9.29;81.06;100451.03;4982875;28;20051;-71
2023/11/16 09:58:21;;;;;;;0.50;0.50;;;;;;;9.44;80.93;100450.22;4984579;28;20031;-69
2023/11/16 10:00:55;;;;;;;0.88;0.63;;;;;;;9.54;80.33;100457.72;4985268;28;20031;-70
2023/11/16 10:03:31;;;;;;;0.30;0.30;;;;;;;9.62;80.81;100464.81;4996408;28;20019;-70
2023/11/16 10:05:59;;;;;;;0.50;0.50;;;;;;;9.26;79.33;100447.13;5013576;28;20039;-69
2023/11/16 10:08:27;;;;;;;0.35;0.35;;;;;;;9.46;78.69;100451.44;4998768;28;20042;-71
2023/11/16 10:10:56;;;;;;;0.32;0.32;;;;;;;9.28;79.79;100454.84;4998638;28;20031;-70
2023/11/16 10:13:25;;;;;;;0.32;0.32;;;;;;;9.08;79.26;100452.13;4991873;28;20027;-68
2023/11/16 10:15:54;;;;;;;2.55;0.38;;;;;;;9.27;78.89;100459.44;4983464;28;20043;-71
2023/11/16 10:18:24;;;;;;;0.60;0.43;;;;;;;9.26;78.61;100459.78;4975672;28;20019;-70
2023/11/16 10:20:50;;;;;;;2.17;0.85;;;;;;;9.44;77.80;100448.31;4976617;28;20073;-70
2023/11/16 10:23:18;;;;;;;0.70;0.70;;;;;;;9.26;77.87;100455.19;4974880;28;20157;-71
2023/11/16 10:25:48;;;;;;;1.08;0.80;;;;;;;9.37;78.33;100447.38;4973729;28;20034;-71
2023/11/16 10:28:15;;;;;;;0.60;0.60;;;;;;;9.28;77.62;100455.63;4956691;28;20031;-71
2023/11/16 10:30:46;;;;;;;0.73;0.57;;;;;;;9.19;77.74;100462.31;4971472;28;20038;-71
2023/11/16 10:33:16;;;;;;;0.80;0.70;;;;;;;9.15;78.38;100459.56;4989100;28;20066;-71
2023/11/16 10:35:46;;;;;;;0.50;0.50;;;;;;;9.00;79.80;100455.00;4979559;28;20054;-71
2023/11/16 10:38:11;;;;;;;0.80;0.73;;;;;;;9.40;77.47;100452.03;4973614;28;20039;-70
2023/11/16 10:40:39;;;;;;;1.13;0.80;;;;;;;9.43;77.11;100440.56;4967480;28;20030;-71
2023/11/16 10:43:05;;;;;;;0.70;0.70;;;;;;;9.27;78.41;100445.25;4974363;28;20564;-70
2023/11/16 10:45:33;;;;;;;0.40;0.40;;;;;;;9.41;78.63;100445.53;4974176;28;20054;-71
2023/11/16 10:47:59;;;;;;;0.65;0.63;;;;;;;9.52;78.21;100441.19;4980687;28;20038;-70
2023/11/16 10:50:29;;;;;;;0.32;0.32;;;;;;;9.65;77.39;100454.13;4973925;28;20493;-71
2023/11/16 10:52:56;;;;;;;0.73;0.40;;;;;;;9.74;76.20;100456.59;4973548;28;20142;-71
2023/11/16 10:55:24;;;;;;;0.40;0.40;;;;;;;9.67;76.79;100461.84;4972328;28;20517;-71
2023/11/16 10:57:52;;;;;;;1.67;0.50;;;;;;;9.26;78.03;100457.09;4976748;28;20034;-71
2023/11/16 11:00:19;;;;;;;3.13;0.47;;;;;;;9.48;78.00;100469.88;4973485;28;20027;-71
2023/11/16 11:02:47;;;;;;;0.40;0.40;;;;;;;9.36;77.52;100465.41;4974624;28;20035;-71
2023/11/16 11:05:15;;;;;;;0.43;0.40;;;;;;;9.64;76.16;100470.63;4973039;28;20397;-71
2023/11/16 11:07:49;;;;;;;0.55;0.47;;;;;;;9.50;77.04;100464.94;4959968;28;20128;-71
2023/11/16 11:10:15;;;;;;;0.43;0.38;;;;;;;9.29;77.65;100467.16;4969248;28;20490;-71
2023/11/16 11:12:47;;;;;;;0.60;0.60;;;;;;;9.37;76.88;100472.31;4978850;28;20019;-71
2023/11/16 11:15:49;;;;;;;1.27;0.40;;;;;;;9.43;78.04;100464.75;4973894;28;20039;-71
2023/11/16 11:18:25;;;;;;;;;;;;;;;9.68;77.07;100474.13;4943714;28;20050;-69
2023/11/16 11:20:52;;;;;;;0.40;0.40;;;;;;;9.63;78.37;100469.84;4973866;28;20292;-71
2023/11/16 11:23:18;;;;;;;0.30;0.30;;;;;;;9.62;76.76;100479.00;4975368;28;20021;-71
2023/11/16 11:25:48;;;;;;;0.50;0.50;;;;;;;9.43;78.13;100478.22;4972757;28;20034;-70
2023/11/16 11:28:16;;;;;;;1.67;0.40;;;;;;;9.48;76.81;100478.72;4972903;28;20033;-69
2023/11/16 11:30:59;;;;;;;0.45;0.40;;;;;;;9.76;76.41;100475.84;4971693;28;20517;-71